This is the latest recevied weather packets stored in our database for station/object K5NWZ. If no packets are shown the sender has not sent any weather packets the latest 10 day(s).
| Time | Temp. | Humidity | Pressure | Rain* | Wind** | Luminosity | Snow |
|---|---|---|---|---|---|---|---|
| 1777505542 | 12.78° C | 37% | 1025.8 hPa | 0 mm | - | 130 W/m² | - |
| 1777505239 | 12.78° C | 38% | 1026.1 hPa | 0 mm | - | 120 W/m² | - |
| 1777504935 | 13.33° C | 38% | 1025.8 hPa | 0 mm | - | 128 W/m² | - |
| 1777504632 | 13.33° C | 37% | 1025.8 hPa | 0 mm | - | 159 W/m² | - |
| 1777504330 | 13.89° C | 36% | 1026 hPa | 0 mm | - | 188 W/m² | - |
| 1777504029 | 13.89° C | 36% | 1025.8 hPa | 0 mm | - | 269 W/m² | - |
| 1777503726 | 13.33° C | 38% | 1025.8 hPa | 0 mm | - | 424 W/m² | - |
| 1777503423 | 12.78° C | 40% | 1025.9 hPa | 0 mm | - | 244 W/m² | - |
| 1777503119 | 12.78° C | 40% | 1025.9 hPa | 0 mm | - | 132 W/m² | - |
| 1777502816 | 12.78° C | 43% | 1025.5 hPa | 0 mm | - | 105 W/m² | - |
| 1777502513 | 13.33° C | 36% | 1025.6 hPa | 0 mm | - | 88 W/m² | - |
| 1777502210 | 13.33° C | 36% | 1025.8 hPa | 0 mm | - | 151 W/m² | - |
| 1777501908 | 13.33° C | 38% | 1026 hPa | 0 mm | - | 227 W/m² | - |
| 1777501604 | 12.78° C | 40% | 1026.1 hPa | 0 mm | - | 233 W/m² | - |
| 1777501302 | 13.89° C | 39% | 1025.9 hPa | 0 mm | - | 201 W/m² | - |
| 1777500999 | 13.89° C | 35% | 1025.9 hPa | 0 mm | - | 239 W/m² | - |
| 1777500697 | 13.33° C | 36% | 1026 hPa | 0 mm | - | 167 W/m² | - |
| 1777500393 | 13.89° C | 35% | 1025.9 hPa | 0 mm | - | 123 W/m² | - |
| 1777500089 | 13.89° C | 35% | 1025.8 hPa | 0 mm | - | 119 W/m² | - |
| 1777499786 | 14.44° C | 35% | 1025.5 hPa | 0 mm | - | 140 W/m² | - |
| 1777499482 | 14.44° C | 35% | 1025.6 hPa | 0 mm | - | 181 W/m² | - |
| 1777499181 | 15° C | 33% | 1025.5 hPa | 0 mm | - | 204 W/m² | - |
| 1777498877 | 16.11° C | 32% | 1025.6 hPa | 0 mm | - | 327 W/m² | - |
| 1777498574 | 15° C | 33% | 1025.5 hPa | 0 mm | - | 729 W/m² | - |
| 1777498270 | 15° C | 33% | 1025.4 hPa | 0 mm | - | 318 W/m² | - |
* Rain latest hour (hover to see other rain measurements)
** Current wind speed in m/s (hover to see current wind gust speed)